createdAt,value
2019-01-08T00:02:25.729Z,4.53
2019-01-08T00:04:55.416Z,4.60
2019-01-08T00:07:25.084Z,4.77
2019-01-08T00:09:54.775Z,5.13
2019-01-08T00:12:24.465Z,5.60
2019-01-08T00:14:54.129Z,5.80
2019-01-08T00:17:23.828Z,5.30
2019-01-08T00:19:53.506Z,5.07
2019-01-08T00:22:23.179Z,4.90
2019-01-08T00:24:52.935Z,5.27
2019-01-08T00:27:22.626Z,5.47
2019-01-08T00:29:52.404Z,4.77
2019-01-08T00:32:22.089Z,4.80
2019-01-08T00:34:51.756Z,4.83
2019-01-08T00:37:21.440Z,6.12
2019-01-08T00:39:51.111Z,4.93
2019-01-08T00:42:20.780Z,5.27
2019-01-08T00:44:50.444Z,5.00
2019-01-08T00:47:20.120Z,5.53
2019-01-08T00:49:49.797Z,4.83
2019-01-08T00:52:19.472Z,5.35
2019-01-08T00:54:49.161Z,4.97
2019-01-08T00:57:18.836Z,7.43
2019-01-08T00:59:48.507Z,4.33
2019-01-08T01:02:18.260Z,4.70
2019-01-08T01:04:47.935Z,5.43
2019-01-08T01:07:17.623Z,6.17
2019-01-08T01:09:47.809Z,5.47
2019-01-08T01:12:17.556Z,5.03
2019-01-08T01:14:47.243Z,4.77
2019-01-08T01:17:16.932Z,4.97
2019-01-08T01:19:46.679Z,5.27
2019-01-08T01:22:16.361Z,4.75
2019-01-08T01:24:46.031Z,5.10
2019-01-08T01:27:15.726Z,4.67
2019-01-08T01:29:45.877Z,5.00
2019-01-08T01:32:15.544Z,5.13
2019-01-08T01:34:45.223Z,5.97
2019-01-08T01:37:15.140Z,5.23
2019-01-08T01:39:44.816Z,5.40
2019-01-08T01:42:22.137Z,5.12
2019-01-08T01:44:51.818Z,5.37
2019-01-08T01:47:21.489Z,5.05
2019-01-08T01:49:51.163Z,5.50
2019-01-08T01:52:20.836Z,5.33
2019-01-08T01:54:50.757Z,4.87
2019-01-08T01:57:20.434Z,5.57
2019-01-08T01:59:50.108Z,5.40
2019-01-08T02:02:19.784Z,6.00
2019-01-08T02:04:49.548Z,5.27
2019-01-08T02:07:19.464Z,5.70
2019-01-08T02:09:49.132Z,5.63
2019-01-08T02:12:18.828Z,5.03
2019-01-08T02:14:48.505Z,5.30
2019-01-08T02:17:18.181Z,5.80
2019-01-08T02:19:47.856Z,5.80
2019-01-08T02:22:17.524Z,5.03
2019-01-08T02:24:47.214Z,5.67
2019-01-08T02:27:16.897Z,5.93
2019-01-08T02:29:46.581Z,6.37
2019-01-08T02:32:16.433Z,6.03
2019-01-08T02:34:46.111Z,6.37
2019-01-08T02:37:15.769Z,6.00
2019-01-08T02:39:45.433Z,5.83
2019-01-08T02:42:15.227Z,5.83
2019-01-08T02:44:45.037Z,5.53
2019-01-08T02:47:14.878Z,4.80
2019-01-08T02:49:44.571Z,5.97
2019-01-08T02:52:14.275Z,6.45
2019-01-08T02:54:43.955Z,5.53
2019-01-08T02:57:13.128Z,6.73
2019-01-08T02:59:42.807Z,5.83
2019-01-08T03:02:12.489Z,6.37
2019-01-08T03:04:42.184Z,5.47
2019-01-08T03:07:11.853Z,6.40
2019-01-08T03:09:41.541Z,6.37
2019-01-08T03:12:11.210Z,5.80
2019-01-08T03:14:40.912Z,5.53
2019-01-08T03:17:10.595Z,6.87
2019-01-08T03:19:40.275Z,6.23
2019-01-08T03:22:09.948Z,5.60
2019-01-08T03:24:39.641Z,5.97
2019-01-08T03:27:09.417Z,5.70
2019-01-08T03:29:39.091Z,5.67
2019-01-08T03:32:08.765Z,5.50
2019-01-08T03:34:38.425Z,5.73
2019-01-08T03:37:08.106Z,5.83
2019-01-08T03:39:38.036Z,6.43
2019-01-08T03:42:08.049Z,5.57
2019-01-08T03:44:37.718Z,5.80
2019-01-08T03:47:07.387Z,5.83
2019-01-08T03:49:37.081Z,6.47
2019-01-08T03:52:06.773Z,5.63
2019-01-08T03:54:36.450Z,5.10
2019-01-08T03:57:06.184Z,5.17
2019-01-08T03:59:41.919Z,6.27
2019-01-08T04:02:07.469Z,4.93
2019-01-08T04:04:37.159Z,4.47
2019-01-08T04:07:06.844Z,4.70
2019-01-08T04:09:36.532Z,4.33
2019-01-08T04:12:06.214Z,5.00
2019-01-08T04:14:35.896Z,4.37
2019-01-08T04:17:05.568Z,3.87
2019-01-08T04:19:35.480Z,3.90
2019-01-08T04:22:05.577Z,3.95
2019-01-08T04:24:35.503Z,3.57
2019-01-08T04:27:05.620Z,4.73
2019-01-08T04:29:35.539Z,3.07
2019-01-08T04:32:05.316Z,3.40
2019-01-08T04:34:35.234Z,3.47
2019-01-08T04:37:05.719Z,4.47
2019-01-08T04:39:35.631Z,4.10
2019-01-08T04:42:05.354Z,4.90
2019-01-08T04:44:35.007Z,4.70
2019-01-08T04:47:05.333Z,5.37
2019-01-08T04:49:35.017Z,5.13
2019-01-08T04:52:05.376Z,4.80
2019-01-08T04:54:35.041Z,4.60
2019-01-08T04:57:05.199Z,4.27
2019-01-08T04:59:35.119Z,2.90
2019-01-08T05:02:05.659Z,2.83
2019-01-08T05:04:35.340Z,3.40
2019-01-08T05:07:05.253Z,3.10
2019-01-08T05:09:34.952Z,3.30
2019-01-08T05:12:05.385Z,3.67
2019-01-08T05:14:35.067Z,2.80
2019-01-08T05:17:05.199Z,2.80
2019-01-08T05:19:34.864Z,3.70
2019-01-08T05:22:05.334Z,3.98
2019-01-08T05:24:35.018Z,3.53
2019-01-08T05:27:05.383Z,3.60
2019-01-08T05:29:35.336Z,4.28
2019-01-08T05:32:05.557Z,3.83
2019-01-08T05:34:35.237Z,3.77
2019-01-08T05:37:05.323Z,3.80
2019-01-08T05:39:35.243Z,5.20
2019-01-08T05:42:05.592Z,3.75
2019-01-08T05:44:35.511Z,4.43
2019-01-08T05:47:05.275Z,4.90
2019-01-08T05:49:35.184Z,4.37
2019-01-08T05:52:05.866Z,3.45
2019-01-08T05:54:35.556Z,4.87
2019-01-08T05:57:05.393Z,3.70
2019-01-08T05:59:35.309Z,4.10
2019-01-08T06:02:05.159Z,3.80
2019-01-08T06:04:34.833Z,4.73
2019-01-08T06:07:05.422Z,4.17
2019-01-08T06:09:35.105Z,3.87
2019-01-08T06:12:05.815Z,4.75
2019-01-08T06:14:36.814Z,4.53
2019-01-08T06:17:06.573Z,4.60
2019-01-08T06:19:36.477Z,4.10
2019-01-08T06:22:06.158Z,5.83
2019-01-08T06:24:35.843Z,5.77
2019-01-08T06:27:05.511Z,5.13
2019-01-08T06:29:35.427Z,5.17
2019-01-08T06:32:05.212Z,4.00
2019-01-08T06:34:34.900Z,4.50
2019-01-08T06:37:05.243Z,4.63
2019-01-08T06:39:34.924Z,4.87
2019-01-08T06:42:05.565Z,5.20
2019-01-08T06:44:35.238Z,4.63
2019-01-08T06:47:05.404Z,4.87
2019-01-08T06:49:35.079Z,4.80
2019-01-08T06:52:05.305Z,5.20
2019-01-08T06:54:34.985Z,5.17
2019-01-08T06:57:05.292Z,5.37
2019-01-08T06:59:34.980Z,4.93
2019-01-08T07:02:05.763Z,4.50
2019-01-08T07:04:35.451Z,5.30
2019-01-08T07:07:05.551Z,6.00
2019-01-08T07:09:35.479Z,5.73
2019-01-08T07:12:05.318Z,7.17
2019-01-08T07:14:35.016Z,5.30
2019-01-08T07:17:05.164Z,6.07
2019-01-08T07:19:34.859Z,5.73
2019-01-08T07:22:05.329Z,5.37
2019-01-08T07:24:35.733Z,6.87
2019-01-08T07:27:05.405Z,6.53
2019-01-08T07:29:35.097Z,6.27
2019-01-08T07:32:05.342Z,5.80
2019-01-08T07:34:35.017Z,5.40
2019-01-08T07:37:05.457Z,6.65
2019-01-08T07:39:35.130Z,6.22
2019-01-08T07:42:05.633Z,5.83
2019-01-08T07:44:35.313Z,6.13
2019-01-08T07:47:05.259Z,7.22
2019-01-08T07:49:34.935Z,5.63
2019-01-08T07:52:04.973Z,5.13
2019-01-08T07:54:35.878Z,5.57
2019-01-08T07:57:05.604Z,5.40
2019-01-08T07:59:35.276Z,6.10
2019-01-08T08:02:06.813Z,6.33
2019-01-08T08:04:36.541Z,6.80
2019-01-08T08:07:06.209Z,6.20
2019-01-08T08:09:35.964Z,6.27
2019-01-08T08:12:05.636Z,6.30
2019-01-08T08:14:35.309Z,6.47
2019-01-08T08:17:05.754Z,6.47
2019-01-08T08:19:35.411Z,5.90
2019-01-08T08:22:05.091Z,5.83
2019-01-08T08:24:35.080Z,7.27
2019-01-08T08:27:05.361Z,6.60
2019-01-08T08:29:35.024Z,6.87
2019-01-08T08:32:05.246Z,6.35
2019-01-08T08:34:34.917Z,5.70
2019-01-08T08:37:05.436Z,6.42
2019-01-08T08:39:35.106Z,6.43
2019-01-08T08:42:05.453Z,5.47
2019-01-08T08:44:35.132Z,6.70
2019-01-08T08:47:04.900Z,6.00
2019-01-08T08:49:34.590Z,7.63
2019-01-08T08:52:04.260Z,6.87
2019-01-08T08:54:34.008Z,7.60
2019-01-08T08:57:03.676Z,6.60
2019-01-08T08:59:33.589Z,7.37
2019-01-08T09:02:03.269Z,8.53
2019-01-08T09:04:32.928Z,8.18
2019-01-08T09:07:02.848Z,7.27
2019-01-08T09:09:32.534Z,7.83
2019-01-08T09:12:02.219Z,8.40
2019-01-08T09:14:31.875Z,9.43
2019-01-08T09:17:01.553Z,8.20
2019-01-08T09:19:31.233Z,7.33
2019-01-08T09:22:00.904Z,8.00
2019-01-08T09:24:30.595Z,8.53
2019-01-08T09:27:00.280Z,8.30
2019-01-08T09:29:31.736Z,8.37
2019-01-08T09:32:01.523Z,7.93
2019-01-08T09:34:31.218Z,7.33
2019-01-08T09:37:00.906Z,8.47
2019-01-08T09:39:30.572Z,7.13
2019-01-08T09:42:00.278Z,7.83
2019-01-08T09:44:29.948Z,9.27
2019-01-08T09:46:59.616Z,8.27
2019-01-08T09:49:29.307Z,8.37
2019-01-08T09:51:59.220Z,8.43
2019-01-08T09:54:28.890Z,8.33
2019-01-08T09:56:58.548Z,8.70
2019-01-08T09:59:28.233Z,9.13
2019-01-08T10:01:57.898Z,7.77
2019-01-08T10:04:27.571Z,7.63
2019-01-08T10:06:57.288Z,9.28
2019-01-08T10:09:27.210Z,7.10
2019-01-08T10:11:57.133Z,6.97
2019-01-08T10:14:27.060Z,6.90
2019-01-08T10:16:56.734Z,8.03
2019-01-08T10:19:26.411Z,7.80
2019-01-08T10:21:56.141Z,6.57
2019-01-08T10:24:25.762Z,7.17
2019-01-08T10:26:55.680Z,9.13
2019-01-08T10:29:25.360Z,9.43
2019-01-08T10:31:55.032Z,7.80
2019-01-08T10:34:24.716Z,8.37
2019-01-08T10:36:54.404Z,7.57
2019-01-08T10:39:24.107Z,8.37
2019-01-08T10:41:53.782Z,7.60
2019-01-08T10:44:23.469Z,7.83
2019-01-08T10:46:53.228Z,7.97
2019-01-08T10:49:22.916Z,7.12
2019-01-08T10:51:52.598Z,6.10
2019-01-08T10:54:22.284Z,6.90
2019-01-08T10:56:51.940Z,7.37
2019-01-08T10:59:21.612Z,6.67
2019-01-08T11:01:51.290Z,7.30
2019-01-08T11:04:20.964Z,6.63
2019-01-08T11:06:50.645Z,6.43
2019-01-08T11:09:20.328Z,6.40
2019-01-08T11:11:49.993Z,7.90
2019-01-08T11:14:19.662Z,7.03
2019-01-08T11:16:50.536Z,7.10
2019-01-08T11:19:20.287Z,9.13
2019-01-08T11:21:50.024Z,7.37
2019-01-08T11:24:19.694Z,7.17
2019-01-08T11:26:55.216Z,8.53
2019-01-08T11:29:24.884Z,7.47
2019-01-08T11:31:54.944Z,8.33
2019-01-08T11:34:24.878Z,8.00
2019-01-08T11:36:54.545Z,7.27
2019-01-08T11:39:24.225Z,7.50
2019-01-08T11:41:53.895Z,7.17
2019-01-08T11:44:24.430Z,6.60
2019-01-08T11:46:54.213Z,6.13
2019-01-08T11:49:24.125Z,6.63
2019-01-08T11:51:53.816Z,6.47
2019-01-08T11:54:23.496Z,6.23
2019-01-08T11:56:53.178Z,5.83
2019-01-08T11:59:22.852Z,5.70
2019-01-08T12:01:57.280Z,6.10
2019-01-08T12:04:23.998Z,5.40
2019-01-08T12:06:53.661Z,5.93
2019-01-08T12:09:23.350Z,5.75
2019-01-08T12:11:53.030Z,6.50
2019-01-08T12:14:22.698Z,5.80
2019-01-08T12:16:52.379Z,6.60
2019-01-08T12:19:22.122Z,6.27
2019-01-08T12:21:51.870Z,6.03
2019-01-08T12:24:21.534Z,6.60
2019-01-08T12:26:51.248Z,6.57
2019-01-08T12:29:20.938Z,5.77
2019-01-08T12:31:50.623Z,5.73
2019-01-08T12:34:20.308Z,7.12
2019-01-08T12:36:55.703Z,5.97
2019-01-08T12:39:25.368Z,5.67
2019-01-08T12:41:55.085Z,4.93
2019-01-08T12:44:24.997Z,5.17
2019-01-08T12:46:54.678Z,6.30
2019-01-08T12:49:24.360Z,7.40
2019-01-08T12:51:54.050Z,6.43
2019-01-08T12:54:23.746Z,5.95
2019-01-08T12:56:53.683Z,6.30
2019-01-08T12:59:23.364Z,6.45
2019-01-08T13:01:53.063Z,5.13
2019-01-08T13:04:22.732Z,5.70
2019-01-08T13:06:52.432Z,5.07
2019-01-08T13:09:22.102Z,6.17
2019-01-08T13:11:51.803Z,4.90
2019-01-08T13:14:21.488Z,4.95
2019-01-08T13:16:51.167Z,4.27
2019-01-08T13:19:21.310Z,5.00
2019-01-08T13:21:51.245Z,3.50
2019-01-08T13:24:20.962Z,3.37
2019-01-08T13:26:50.649Z,3.43
2019-01-08T13:29:20.331Z,3.83
2019-01-08T13:31:50.003Z,4.30
2019-01-08T13:34:19.687Z,3.80
2019-01-08T13:36:49.363Z,4.70
2019-01-08T13:39:19.053Z,4.00
2019-01-08T13:41:48.719Z,4.43
2019-01-08T13:44:18.396Z,6.37
2019-01-08T13:46:48.087Z,4.97
2019-01-08T13:49:17.775Z,5.90
2019-01-08T13:51:47.480Z,5.17
2019-01-08T13:54:17.161Z,4.70
2019-01-08T13:56:46.846Z,4.90
2019-01-08T13:59:16.528Z,3.83
2019-01-08T14:01:46.198Z,4.43
2019-01-08T14:04:16.120Z,4.03
2019-01-08T14:06:45.817Z,5.70
2019-01-08T14:09:16.454Z,5.17
2019-01-08T14:11:46.254Z,5.63
2019-01-08T14:14:15.868Z,4.60
2019-01-08T14:16:45.709Z,5.13
2019-01-08T14:19:15.697Z,4.95
2019-01-08T14:21:45.445Z,5.07
2019-01-08T14:24:15.135Z,4.70
2019-01-08T14:26:44.823Z,5.20
2019-01-08T14:29:14.513Z,6.50
2019-01-08T14:31:44.189Z,4.87
2019-01-08T14:34:13.939Z,5.28
2019-01-08T14:36:43.864Z,5.23
2019-01-08T14:39:13.549Z,5.20
2019-01-08T14:41:43.221Z,6.00
2019-01-08T14:44:12.876Z,6.12
2019-01-08T14:46:42.545Z,6.27
2019-01-08T14:49:12.233Z,5.90
2019-01-08T14:51:41.995Z,5.33
2019-01-08T14:54:11.664Z,5.73
2019-01-08T14:56:41.412Z,6.13
2019-01-08T14:59:11.097Z,5.55
2019-01-08T15:01:40.764Z,6.23
2019-01-08T15:04:10.441Z,5.43
2019-01-08T15:06:40.129Z,7.43
2019-01-08T15:09:09.800Z,6.40
2019-01-08T15:11:39.500Z,6.10
2019-01-08T15:14:09.171Z,5.40
2019-01-08T15:16:38.835Z,5.97
2019-01-08T15:19:08.572Z,6.05
2019-01-08T15:21:38.238Z,6.57
2019-01-08T15:24:07.920Z,6.60
2019-01-08T15:26:37.588Z,5.40
2019-01-08T15:29:07.280Z,6.70
2019-01-08T15:31:36.957Z,8.83
2019-01-08T15:34:06.734Z,6.80
2019-01-08T15:36:36.519Z,5.67
2019-01-08T15:39:17.314Z,5.95
2019-01-08T15:41:46.992Z,5.40
2019-01-08T15:44:16.679Z,5.90
2019-01-08T15:46:46.459Z,7.57
2019-01-08T15:49:16.151Z,5.70
2019-01-08T15:51:46.041Z,5.83
2019-01-08T15:54:15.726Z,6.22
2019-01-08T15:56:45.487Z,6.17
2019-01-08T15:59:15.160Z,4.50
2019-01-08T16:01:44.945Z,4.70
2019-01-08T16:04:14.746Z,4.50
2019-01-08T16:06:44.469Z,4.33
2019-01-08T16:09:14.151Z,5.40
2019-01-08T16:11:43.818Z,5.40
2019-01-08T16:14:13.505Z,5.67
2019-01-08T16:16:43.484Z,5.80
2019-01-08T16:19:13.648Z,5.80
2019-01-08T16:21:43.586Z,6.30
2019-01-08T16:24:13.248Z,7.73
2019-01-08T16:26:42.916Z,6.47
2019-01-08T16:29:12.586Z,6.90
2019-01-08T16:31:42.270Z,7.47
2019-01-08T16:34:11.944Z,5.83
2019-01-08T16:36:48.358Z,8.33
2019-01-08T16:39:18.203Z,5.70
2019-01-08T16:41:48.134Z,6.33
2019-01-08T16:44:17.830Z,6.40
2019-01-08T16:46:47.513Z,5.33
2019-01-08T16:49:17.177Z,6.53
2019-01-08T16:51:46.841Z,5.57
2019-01-08T16:54:17.749Z,5.67
2019-01-08T16:56:47.421Z,7.43
2019-01-08T16:59:17.341Z,7.17
2019-01-08T17:01:47.018Z,5.23
2019-01-08T17:04:16.708Z,6.10
2019-01-08T17:06:46.380Z,5.20
2019-01-08T17:09:16.134Z,5.03
2019-01-08T17:11:45.810Z,4.80
2019-01-08T17:14:15.469Z,4.00
2019-01-08T17:16:45.163Z,5.27
2019-01-08T17:19:14.852Z,4.60
2019-01-08T17:21:44.527Z,4.93
2019-01-08T17:24:14.197Z,4.70
2019-01-08T17:26:43.878Z,5.53
2019-01-08T17:29:13.616Z,6.28
2019-01-08T17:31:43.279Z,4.47
2019-01-08T17:34:12.956Z,4.80
2019-01-08T17:36:42.629Z,5.03
2019-01-08T17:39:18.228Z,4.43
2019-01-08T17:41:53.841Z,4.50
2019-01-08T17:44:23.575Z,5.10
2019-01-08T17:46:53.235Z,5.77
2019-01-08T17:49:22.923Z,5.07
2019-01-08T17:51:52.816Z,5.33
2019-01-08T17:54:22.556Z,5.83
2019-01-08T17:56:52.486Z,5.37
2019-01-08T17:59:22.614Z,5.33
2019-01-08T18:01:57.380Z,4.90
2019-01-08T18:04:27.135Z,4.37
2019-01-08T18:06:56.796Z,5.20
2019-01-08T18:09:26.467Z,4.67
2019-01-08T18:11:56.288Z,4.83
2019-01-08T18:14:26.035Z,4.97
2019-01-08T18:16:56.680Z,5.90
2019-01-08T18:19:26.583Z,6.17
2019-01-08T18:21:56.332Z,4.60
2019-01-08T18:24:26.004Z,5.40
2019-01-08T18:26:55.673Z,4.87
2019-01-08T18:29:25.357Z,5.83
2019-01-08T18:31:55.504Z,5.03
2019-01-08T18:34:26.147Z,6.00
2019-01-08T18:36:55.830Z,6.20
2019-01-08T18:39:25.496Z,5.77
2019-01-08T18:41:55.661Z,5.90
2019-01-08T18:44:25.338Z,5.50
2019-01-08T18:46:55.127Z,6.20
2019-01-08T18:49:31.163Z,7.70
2019-01-08T18:52:00.832Z,6.77
2019-01-08T18:54:30.568Z,6.73
2019-01-08T18:57:00.242Z,6.17
2019-01-08T18:59:29.928Z,6.73
2019-01-08T19:01:59.617Z,7.30
2019-01-08T19:04:29.301Z,6.10
2019-01-08T19:06:58.968Z,5.70
2019-01-08T19:09:36.421Z,7.10
2019-01-08T19:12:11.214Z,6.50
2019-01-08T19:14:56.527Z,6.20
2019-01-08T19:17:26.204Z,6.60
2019-01-08T19:19:55.878Z,6.90
2019-01-08T19:22:25.620Z,7.20
2019-01-08T19:24:55.376Z,7.70
2019-01-08T19:27:25.138Z,6.43
2019-01-08T19:29:54.840Z,6.20
2019-01-08T19:32:24.513Z,5.97
2019-01-08T19:34:54.195Z,6.37
2019-01-08T19:37:23.865Z,6.00
2019-01-08T19:39:53.622Z,6.77
2019-01-08T19:42:23.315Z,7.17
2019-01-08T19:44:52.977Z,6.20
2019-01-08T19:47:22.640Z,5.73
2019-01-08T19:49:52.308Z,5.37
2019-01-08T19:52:21.998Z,4.92
2019-01-08T19:54:51.680Z,6.37
2019-01-08T19:57:22.731Z,5.90
2019-01-08T19:59:52.406Z,5.67
2019-01-08T20:02:22.070Z,5.28
2019-01-08T20:04:52.727Z,4.93
2019-01-08T20:07:22.407Z,4.80
2019-01-08T20:09:52.323Z,5.17
2019-01-08T20:12:22.001Z,5.17
2019-01-08T20:14:51.669Z,4.23
2019-01-08T20:17:21.387Z,5.55
2019-01-08T20:19:51.112Z,5.27
2019-01-08T20:22:20.807Z,5.17
2019-01-08T20:24:50.477Z,5.60
2019-01-08T20:27:20.149Z,4.20
2019-01-08T20:29:50.067Z,4.83
2019-01-08T20:32:19.748Z,3.45
2019-01-08T20:34:49.451Z,3.90
2019-01-08T20:37:19.132Z,3.83
2019-01-08T20:39:49.646Z,3.27
2019-01-08T20:42:19.391Z,4.40
2019-01-08T20:44:49.066Z,5.20
2019-01-08T20:47:18.740Z,4.67
2019-01-08T20:49:48.496Z,4.53
2019-01-08T20:52:18.168Z,5.00
2019-01-08T20:54:47.840Z,5.57
2019-01-08T20:57:17.546Z,4.97
2019-01-08T20:59:47.231Z,4.13
2019-01-08T21:02:16.920Z,5.00
2019-01-08T21:04:46.670Z,4.37
2019-01-08T21:07:16.356Z,5.83
2019-01-08T21:09:46.062Z,5.43
2019-01-08T21:12:15.868Z,4.20
2019-01-08T21:14:45.541Z,4.50
2019-01-08T21:17:15.200Z,4.92
2019-01-08T21:19:44.879Z,5.10
2019-01-08T21:22:14.542Z,3.90
2019-01-08T21:24:45.182Z,5.27
2019-01-08T21:27:14.859Z,4.33
2019-01-08T21:29:44.783Z,4.87
2019-01-08T21:32:14.455Z,4.30
2019-01-08T21:34:44.749Z,3.13
2019-01-08T21:37:14.385Z,3.47
2019-01-08T21:39:44.135Z,3.90
2019-01-08T21:42:13.872Z,7.20
2019-01-08T21:44:43.552Z,4.10
2019-01-08T21:47:13.221Z,4.43
2019-01-08T21:49:43.380Z,4.27
2019-01-08T21:52:13.053Z,3.80
2019-01-08T21:54:42.717Z,5.23
2019-01-08T21:57:12.384Z,6.40
2019-01-08T21:59:42.207Z,5.60
2019-01-08T22:02:11.941Z,3.80
2019-01-08T22:04:41.696Z,4.30
2019-01-08T22:07:11.363Z,3.23
2019-01-08T22:09:41.200Z,4.43
2019-01-08T22:12:10.954Z,4.10
2019-01-08T22:14:40.625Z,4.10
2019-01-08T22:17:10.290Z,4.10
2019-01-08T22:19:40.115Z,4.07
2019-01-08T22:22:09.791Z,4.10
2019-01-08T22:24:39.455Z,3.90
2019-01-08T22:27:09.124Z,3.93
2019-01-08T22:29:38.779Z,3.30
2019-01-08T22:32:08.514Z,2.83
2019-01-08T22:34:38.258Z,3.80
2019-01-08T22:37:08.290Z,3.00
2019-01-08T22:39:37.991Z,2.92
2019-01-08T22:42:07.722Z,3.40
2019-01-08T22:44:37.419Z,3.43
2019-01-08T22:47:07.095Z,4.10
2019-01-08T22:49:40.533Z,3.10
2019-01-08T22:52:10.689Z,3.62
2019-01-08T22:54:40.360Z,3.07
2019-01-08T22:57:10.098Z,2.75
2019-01-08T22:59:39.771Z,2.50
2019-01-08T23:02:09.596Z,2.08
2019-01-08T23:04:39.304Z,1.90
2019-01-08T23:07:08.970Z,3.03
2019-01-08T23:09:38.724Z,2.40
2019-01-08T23:12:09.678Z,2.30
2019-01-08T23:14:39.408Z,2.57
2019-01-08T23:17:09.085Z,3.17
2019-01-08T23:19:38.751Z,3.00
2019-01-08T23:22:08.417Z,3.87
2019-01-08T23:24:38.095Z,3.70
2019-01-08T23:27:07.767Z,3.57
2019-01-08T23:29:37.509Z,3.47
2019-01-08T23:32:07.244Z,5.13
2019-01-08T23:34:37.879Z,4.13
2019-01-08T23:37:07.563Z,5.47
2019-01-08T23:39:37.231Z,4.30
2019-01-08T23:42:06.990Z,3.72
2019-01-08T23:44:36.737Z,4.37
2019-01-08T23:47:06.486Z,3.20
2019-01-08T23:49:36.158Z,3.83
2019-01-08T23:52:18.108Z,3.63
2019-01-08T23:54:49.439Z,4.80
2019-01-08T23:57:20.150Z,4.07
2019-01-08T23:59:49.891Z,3.43
